Time;durP1;ratioP1;P1;durP2;ratioP2;P2;SDS_P1;SDS_P2;PMS_P1;PMS_P2;Temp;Humidity;BMP_temperature;BMP_pressure;BME280_temperature;BME280_humidity;BME280_pressure;Samples;Min_cycle;Max_cycle;Signal;HPM_P1;HPM_P2
2023/01/11 00:01:43;;;;;;;3.83;2.60;;;4.10;80.00;;;3.47;74.16;98142.13;5084287;28;20515;-76
2023/01/11 00:04:11;;;;;;;6.23;3.07;;;4.20;79.70;;;3.50;73.93;98146.31;5069586;28;20443;-78
2023/01/11 00:06:38;;;;;;;4.20;2.90;;;4.20;79.60;;;3.43;73.57;98134.66;5083257;28;21054;-76
2023/01/11 00:09:05;;;;;;;4.73;3.00;;;4.20;79.50;;;3.73;73.79;98167.03;5078386;28;20476;-75
2023/01/11 00:11:32;;;;;;;4.90;2.50;;;4.20;79.70;;;3.55;74.44;98170.69;5093228;28;20454;-75
2023/01/11 00:13:59;;;;;;;3.80;2.43;;;4.20;79.50;;;3.62;74.43;98166.38;5089346;28;20468;-77
2023/01/11 00:16:28;;;;;;;3.27;2.63;;;4.20;79.60;;;3.65;73.90;98166.03;5078272;28;20830;-75
2023/01/11 00:18:57;;;;;;;4.43;3.00;;;4.20;79.80;;;3.52;74.90;98163.00;5071354;28;20473;-80
2023/01/11 00:21:25;;;;;;;6.03;2.77;;;4.10;79.60;;;3.61;74.92;98175.38;5070207;28;20470;-76
2023/01/11 00:23:52;;;;;;;8.03;4.20;;;4.20;79.60;;;3.74;73.76;98160.69;5078531;28;20501;-73
2023/01/11 00:26:20;;;;;;;3.80;2.60;;;4.20;79.70;;;3.58;74.08;98154.34;5084287;28;20451;-74
2023/01/11 00:28:48;;;;;;;4.30;2.83;;;4.20;79.50;;;3.78;73.47;98172.72;5088163;28;20451;-75
2023/01/11 00:31:15;;;;;;;5.80;3.07;;;4.30;79.60;;;3.74;74.28;98163.38;5070803;28;20455;-76
2023/01/11 00:33:44;;;;;;;4.40;2.60;;;4.30;79.60;;;3.72;73.96;98150.16;5087280;28;20447;-75
2023/01/11 00:36:11;;;;;;;3.30;2.90;;;4.20;79.60;;;3.32;73.88;98074.38;5084315;28;20448;-72
2023/01/11 00:38:45;;;;;;;6.97;3.30;;;4.30;79.70;;;3.80;74.30;98157.34;5086836;28;20540;-75
2023/01/11 00:49:32;;;;;;;4.70;2.57;;;4.20;80.10;;;3.49;75.05;98116.13;5070138;28;20493;-76
2023/01/11 00:51:59;;;;;;;4.83;3.50;;;4.30;80.30;;;3.68;75.60;98128.28;5067921;28;20496;-76
2023/01/11 00:54:26;;;;;;;6.13;3.03;;;4.20;80.50;;;3.79;75.08;98128.94;5082858;28;20547;-74
2023/01/11 00:56:53;;;;;;;4.40;3.20;;;4.30;80.60;;;3.67;76.94;98125.78;5076122;28;20471;-73
2023/01/11 00:59:21;;;;;;;4.80;3.10;;;4.30;81.50;;;3.66;76.70;98108.91;5068054;28;21209;-74
2023/01/11 01:01:49;;;;;;;9.00;3.03;;;4.20;82.10;;;3.62;78.16;98126.28;5068104;28;20456;-81
2023/01/11 01:04:16;;;;;;;5.30;3.10;;;4.20;83.30;;;3.62;79.33;98128.97;5069589;28;20848;-75
2023/01/11 01:06:45;;;;;;;5.90;3.30;;;4.10;85.20;;;3.53;79.36;98097.88;5086349;28;20454;-75
2023/01/11 01:09:12;;;;;;;5.17;3.27;;;4.20;86.70;;;3.73;79.31;98113.59;5066849;28;20448;-73
2023/01/11 01:11:39;;;;;;;10.03;3.60;;;4.20;87.90;;;3.33;81.23;98121.44;5092220;28;20554;-74
2023/01/11 01:16:52;;;;;;;4.73;3.67;;;3.90;91.50;;;3.22;83.55;98098.56;5069552;28;20469;-74
2023/01/11 01:19:21;;;;;;;5.93;3.63;;;3.80;92.30;;;3.42;84.38;98122.28;5069163;28;20450;-75
2023/01/11 01:21:49;;;;;;;7.20;4.30;;;3.80;93.10;;;3.42;84.59;98109.75;5073469;28;20440;-76
2023/01/11 01:24:17;;;;;;;6.30;4.03;;;3.80;93.70;;;3.33;85.85;98108.94;5069138;28;20448;-76
2023/01/11 01:26:44;;;;;;;5.03;4.10;;;3.80;94.40;;;3.52;85.59;98122.94;5089606;28;20444;-75
2023/01/11 01:29:13;;;;;;;8.60;4.00;;;3.90;95.20;;;2.80;85.36;98021.13;5085133;28;20505;-74
2023/01/11 01:31:41;;;;;;;9.30;3.90;;;3.90;95.10;;;3.24;86.21;98104.56;5084358;28;20456;-74
2023/01/11 01:34:08;;;;;;;8.63;4.20;;;3.90;95.60;;;3.35;86.08;98111.44;5077505;28;20519;-75
2023/01/11 01:36:35;;;;;;;8.90;3.80;;;3.90;95.30;;;3.24;86.81;98121.44;5071780;28;20527;-74
2023/01/11 01:39:06;;;;;;;7.33;4.37;;;3.80;95.10;;;2.67;86.37;98012.78;5073538;28;20456;-76
2023/01/11 01:41:33;;;;;;;6.33;4.20;;;3.80;95.50;;;3.29;86.45;98101.41;5086655;28;20453;-76
2023/01/11 01:44:03;;;;;;;4.90;3.87;;;3.80;95.20;;;3.20;86.70;98103.25;5087508;28;20505;-76
2023/01/11 01:46:33;;;;;;;8.53;4.27;;;3.80;94.90;;;3.20;86.39;98092.56;5055677;28;20459;-73
2023/01/11 01:49:07;;;;;;;5.63;3.50;;;3.80;95.00;;;3.23;86.95;98090.41;5071370;28;20622;-77
2023/01/11 01:51:41;;;;;;;5.83;4.47;;;3.80;95.20;;;3.38;85.72;98090.56;5070896;28;20524;-74
2023/01/11 01:54:13;;;;;;;5.33;3.73;;;3.90;94.80;;;3.23;85.82;98077.06;5063625;28;20474;-75
2023/01/11 01:56:46;;;;;;;6.43;3.53;;;3.90;94.70;;;3.36;86.17;98092.56;5090177;28;20467;-73
2023/01/11 01:59:16;;;;;;;6.90;3.97;;;3.90;94.90;;;3.43;86.31;98091.91;5064033;28;20479;-73
2023/01/11 02:01:47;;;;;;;4.00;3.60;;;3.90;94.70;;;3.45;85.83;98084.56;5090690;28;21216;-73
2023/01/11 02:04:21;;;;;;;7.20;4.23;;;3.90;94.30;;;3.42;85.99;98069.69;5076594;28;20469;-73
2023/01/11 02:06:50;;;;;;;7.83;4.90;;;4.00;94.40;;;3.59;85.70;98081.19;5087251;28;20455;-74
2023/01/11 02:09:26;;;;;;;4.67;3.83;;;4.00;94.30;;;3.47;85.42;98067.34;5086537;28;20457;-75
2023/01/11 02:11:55;;;;;;;6.60;4.17;;;4.00;94.10;;;3.58;85.73;98071.53;5069259;28;20451;-73
2023/01/11 02:14:25;;;;;;;6.83;4.60;;;4.10;94.70;;;3.39;86.27;98044.13;5089250;28;20440;-75
2023/01/11 02:16:52;;;;;;;11.50;4.77;;;4.00;94.40;;;3.58;86.20;98068.84;5091387;28;20529;-74
2023/01/11 02:19:40;;;;;;;5.63;4.30;;;4.00;95.10;;;3.40;87.47;98056.50;5095779;28;20464;-73
2023/01/11 02:22:51;;;;;;;5.50;3.67;;;4.00;95.20;;;3.58;86.28;98063.50;5105145;28;20500;-76
2023/01/11 02:25:50;;;;;;;4.77;3.73;;;4.10;95.30;;;3.53;86.89;98058.66;5070807;28;20476;-77
2023/01/11 02:28:24;;;;;;;5.70;4.03;;;4.10;95.00;;;3.66;85.78;98049.28;5092367;28;20438;-74
2023/01/11 02:31:02;;;;;;;6.60;4.40;;;4.10;95.60;;;3.56;85.85;98041.44;5098045;28;20458;-74
2023/01/11 02:33:43;;;;;;;7.90;4.10;;;4.10;94.70;;;3.79;86.28;98046.09;5090549;28;20448;-76
2023/01/11 02:36:19;;;;;;;6.07;4.43;;;4.20;95.20;;;3.71;86.29;98046.09;5069766;28;20569;-74
2023/01/11 02:38:55;;;;;;;11.80;4.27;;;4.20;94.40;;;3.56;86.44;98043.28;5090740;28;20599;-74
2023/01/11 02:45:00;;;;;;;4.90;3.63;;;4.20;94.70;;;3.61;86.55;98046.28;5073282;28;20443;-74
2023/01/11 02:47:33;;;;;;;6.60;4.70;;;4.20;94.30;;;3.76;86.39;98033.06;5001065;28;20465;-78
2023/01/11 02:50:11;;;;;;;5.83;4.40;;;4.20;94.50;;;3.74;86.18;98040.44;5081094;28;20459;-75
2023/01/11 02:52:49;;;;;;;6.07;4.20;;;4.20;94.60;;;3.63;86.54;98036.25;5074995;28;21020;-77
2023/01/11 02:55:33;;;;;;;5.80;4.90;;;4.20;95.20;;;3.65;87.26;98040.44;5065031;28;20459;-77
2023/01/11 02:58:03;;;;;;;6.80;4.03;;;4.20;95.30;;;3.69;87.48;98039.06;5071043;28;20463;-75
2023/01/11 03:00:32;;;;;;;6.03;4.50;;;4.20;95.90;;;3.78;86.75;98044.41;5065742;28;21047;-76
2023/01/11 03:03:09;;;;;;;5.93;4.13;;;4.20;95.00;;;3.53;86.98;98002.56;5082275;28;20513;-76
2023/01/11 03:05:44;;;;;;;6.40;4.97;;;4.20;95.00;;;3.69;86.80;98020.38;5089875;28;20533;-78
2023/01/11 03:08:36;;;;;;;6.23;5.10;;;4.20;94.80;;;3.62;86.90;98013.22;5089351;28;20482;-77
2023/01/11 03:11:08;;;;;;;6.70;4.17;;;4.30;95.10;;;3.81;86.87;98020.88;5101807;28;20555;-79
2023/01/11 03:13:56;;;;;;;8.53;4.53;;;4.20;95.30;;;3.24;86.59;97939.84;5073475;28;20457;-76
2023/01/11 03:16:31;;;;;;;5.97;4.07;;;4.20;94.90;;;3.87;86.72;98016.66;5082627;28;20478;-77
2023/01/11 03:19:19;;;;;;;4.77;4.17;;;4.30;95.10;;;3.95;85.20;98011.28;5070816;28;20515;-76
2023/01/11 03:21:56;;;;;;;4.87;3.83;;;4.40;94.30;;;3.78;85.32;98004.31;5089702;28;20467;-76
2023/01/11 03:24:33;;;;;;;4.33;3.93;;;4.40;93.90;;;3.95;85.88;98005.94;5072852;28;20542;-75
2023/01/11 03:27:15;;;;;;;6.10;4.40;;;4.40;93.70;;;4.04;85.13;98003.22;5070718;28;20436;-75
2023/01/11 03:29:51;;;;;;;4.40;3.70;;;4.40;93.90;;;3.96;86.10;98004.91;5087246;28;20459;-75
2023/01/11 03:32:28;;;;;;;5.93;4.77;;;4.40;93.80;;;4.03;84.88;98004.25;5084650;28;20840;-77
2023/01/11 03:35:15;;;;;;;5.00;4.50;;;4.50;93.30;;;4.08;85.15;97999.19;5065872;28;20862;-76
2023/01/11 03:37:48;;;;;;;7.57;4.33;;;4.50;93.20;;;4.00;84.70;97985.84;5069570;28;20570;-76
2023/01/11 03:40:20;;;;;;;4.30;3.90;;;4.50;93.10;;;4.12;84.89;97989.81;5065794;28;20842;-76
2023/01/11 03:45:44;;;;;;;6.70;3.90;;;4.60;92.90;;;4.17;84.71;97976.78;5070699;28;20456;-79
2023/01/11 03:48:18;;;;;;;4.07;3.57;;;4.60;92.80;;;4.13;84.41;97975.44;5064372;28;20943;-76
2023/01/11 03:50:48;;;;;;;5.60;4.03;;;4.60;92.60;;;3.93;83.85;97938.44;5083943;28;20503;-75
2023/01/11 03:53:18;;;;;;;5.40;4.00;;;4.60;92.60;;;4.22;83.85;97958.34;5075749;28;20471;-79
2023/01/11 03:55:51;;;;;;;6.03;3.73;;;4.60;92.50;;;4.23;84.14;97964.50;5063809;28;20541;-76
2023/01/11 03:58:19;;;;;;;5.17;3.73;;;4.70;92.50;;;4.14;84.17;97961.06;5070518;28;20498;-76
2023/01/11 04:00:47;;;;;;;5.80;4.30;;;4.60;92.80;;;4.07;83.90;97938.72;5086391;28;20439;-76
2023/01/11 04:03:17;;;;;;;5.40;4.17;;;4.60;92.40;;;4.19;83.73;97958.69;5084196;28;20456;-76
2023/01/11 04:05:50;;;;;;;4.93;3.57;;;4.70;92.50;;;4.11;84.34;97961.41;5085656;28;20464;-76
2023/01/11 04:08:17;;;;;;;6.57;3.80;;;4.70;92.50;;;4.29;83.95;97958.47;5088189;28;20510;-76
2023/01/11 04:10:45;;;;;;;6.57;4.57;;;4.70;92.60;;;4.19;84.21;97958.69;5063749;28;20837;-76
2023/01/11 04:13:12;;;;;;;4.40;3.73;;;4.70;92.50;;;4.22;83.63;97953.00;5067041;28;20454;-75
2023/01/11 04:15:39;;;;;;;7.00;4.13;;;4.70;92.20;;;4.37;83.66;97954.91;5083386;28;20459;-78
2023/01/11 04:18:07;;;;;;;4.60;3.67;;;4.70;92.30;;;4.14;83.67;97938.84;5064991;28;20536;-77
2023/01/11 04:20:39;;;;;;;4.30;3.87;;;4.70;92.00;;;4.30;83.03;97943.25;5088798;28;20465;-75
2023/01/11 04:23:08;;;;;;;6.10;3.80;;;4.70;92.00;;;4.31;82.36;97956.44;5090582;28;20460;-76
2023/01/11 04:25:35;;;;;;;4.70;3.80;;;4.70;91.50;;;4.10;83.21;97954.41;5087810;28;20456;-77
2023/01/11 04:28:03;;;;;;;6.97;3.83;;;4.60;91.60;;;4.18;83.65;97950.84;5090071;28;20447;-75
2023/01/11 04:30:30;;;;;;;4.73;3.20;;;4.60;91.80;;;3.24;83.12;97816.16;5088692;28;20458;-78
2023/01/11 04:32:58;;;;;;;7.50;4.10;;;4.60;92.00;;;4.22;83.35;97952.16;5070433;28;20443;-74
2023/01/11 04:35:26;;;;;;;3.50;3.03;;;4.70;91.90;;;4.23;83.54;97945.78;5089946;28;20458;-75
2023/01/11 04:37:55;;;;;;;5.83;4.07;;;4.70;91.90;;;4.21;83.15;97951.34;5084578;28;20462;-75
2023/01/11 04:40:23;;;;;;;7.40;3.97;;;4.70;91.50;;;4.16;82.72;97952.88;5088383;28;20448;-75
2023/01/11 04:42:49;;;;;;;3.73;3.17;;;4.70;91.40;;;4.42;82.85;97963.22;5070970;28;20443;-74
2023/01/11 04:45:16;;;;;;;3.87;3.40;;;4.80;91.60;;;4.15;82.90;97927.94;5064933;28;20451;-77
2023/01/11 04:47:44;;;;;;;3.90;3.00;;;4.80;91.30;;;3.72;83.01;97860.72;5086723;28;20450;-76
2023/01/11 04:50:11;;;;;;;4.77;3.60;;;4.80;91.50;;;4.23;83.51;97959.16;5085756;28;20447;-75
2023/01/11 04:52:40;;;;;;;6.93;3.70;;;4.70;91.60;;;4.19;83.98;97958.69;5084983;28;20439;-76
2023/01/11 04:55:09;;;;;;;4.47;3.20;;;4.70;91.80;;;4.34;83.54;97947.25;5085562;28;20472;-75
2023/01/11 04:57:37;;;;;;;5.57;3.20;;;4.80;91.70;;;4.23;83.31;97945.78;5086256;28;20511;-77
2023/01/11 05:00:09;;;;;;;5.73;3.17;;;4.80;91.80;;;4.18;83.77;97930.28;5090694;28;20475;-74
2023/01/11 05:02:36;;;;;;;4.33;2.90;;;4.70;92.10;;;3.92;84.12;97910.03;5085185;28;20504;-75
2023/01/11 05:05:04;;;;;;;3.97;2.77;;;4.70;92.10;;;4.25;83.62;97947.28;5067539;28;20450;-76
2023/01/11 05:07:32;;;;;;;3.97;3.57;;;4.80;92.20;;;4.14;84.35;97923.63;5083520;28;20947;-75
2023/01/11 05:09:59;;;;;;;4.50;3.40;;;4.80;92.20;;;3.68;84.20;97834.31;5085166;28;20444;-77
2023/01/11 05:12:28;;;;;;;3.93;3.23;;;4.80;92.20;;;4.31;83.42;97944.91;5070425;28;20445;-75
2023/01/11 05:14:55;;;;;;;3.50;3.20;;;4.80;91.70;;;4.46;82.75;97950.34;5083225;28;20504;-78
2023/01/11 05:17:23;;;;;;;4.20;3.00;;;4.80;91.70;;;4.39;82.93;97944.88;5080716;28;20450;-75
2023/01/11 05:19:50;;;;;;;3.77;3.10;;;4.90;91.40;;;4.16;83.29;97889.50;5068646;28;20444;-76
2023/01/11 05:22:17;;;;;;;3.50;3.20;;;4.90;91.30;;;4.51;82.68;97940.78;5069856;28;20817;-76
2023/01/11 05:24:44;;;;;;;4.07;3.37;;;5.00;91.00;;;4.46;82.39;97928.94;5085913;28;20439;-75
2023/01/11 05:27:12;;;;;;;3.80;3.40;;;5.00;91.00;;;4.48;82.56;97929.59;5081401;28;20447;-76
2023/01/11 05:29:40;;;;;;;3.00;2.70;;;4.90;91.10;;;4.45;82.70;97919.25;5091914;28;20459;-78
2023/01/11 05:32:07;;;;;;;3.20;2.90;;;4.90;91.10;;;4.46;83.04;97931.59;5082469;28;20550;-76
2023/01/11 05:34:35;;;;;;;4.33;2.90;;;4.90;91.20;;;4.57;82.85;97919.66;5060131;28;20525;-75
2023/01/11 05:37:04;;;;;;;5.20;3.60;;;4.90;91.20;;;4.40;82.36;97895.69;5066392;28;20458;-74
2023/01/11 05:39:32;;;;;;;4.80;4.03;;;4.90;91.20;;;4.58;82.91;97907.94;5078092;28;20487;-76
2023/01/11 05:41:59;;;;;;;4.70;3.17;;;5.00;91.10;;;4.55;82.04;97887.75;5053389;28;20452;-72
2023/01/11 05:47:13;;;;;;;3.33;2.93;;;5.10;90.60;;;4.67;81.29;97896.16;5068865;28;20435;-74
2023/01/11 05:49:40;;;;;;;4.20;2.90;;;5.10;90.30;;;4.74;81.43;97902.44;5074360;28;20494;-73
2023/01/11 05:52:07;;;;;;;3.27;2.90;;;5.10;90.50;;;4.82;81.49;97894.34;5083139;28;21094;-68
2023/01/11 05:54:34;;;;;;;2.83;2.40;;;5.20;90.30;;;4.86;81.17;97899.34;5064933;28;20476;-68
2023/01/11 05:57:01;;;;;;;3.70;2.90;;;5.20;90.00;;;4.79;80.95;97892.03;5094459;28;20444;-70
2023/01/11 05:59:28;;;;;;;3.30;2.50;;;5.20;90.00;;;4.81;81.32;97887.34;5062523;28;20531;-70
2023/01/11 06:01:56;;;;;;;5.40;2.90;;;5.20;90.00;;;4.81;80.57;97878.47;5067667;28;20453;-69
2023/01/11 06:04:26;;;;;;;4.60;2.70;;;5.20;89.80;;;4.62;80.86;97845.00;5066738;28;20551;-71
2023/01/11 06:06:55;;;;;;;3.70;2.90;;;5.30;89.40;;;4.79;81.41;97881.34;5058436;28;21288;-69
2023/01/11 06:09:23;;;;;;;4.00;3.10;;;5.20;90.00;;;4.88;81.03;97883.91;5083982;28;20945;-69
2023/01/11 06:11:50;;;;;;;5.57;3.17;;;5.30;89.60;;;4.95;80.69;97877.66;5083265;28;20513;-71
2023/01/11 06:14:19;;;;;;;5.83;3.10;;;5.40;89.40;;;5.04;80.45;97873.03;5084328;28;20910;-71
2023/01/11 06:16:47;;;;;;;3.30;3.00;;;5.40;89.60;;;4.96;80.59;97857.06;5065266;28;20546;-72
2023/01/11 06:19:15;;;;;;;3.40;2.83;;;5.40;89.50;;;5.19;80.09;97882.94;5087915;28;20471;-70
2023/01/11 06:21:44;;;;;;;4.57;3.60;;;5.40;89.70;;;5.20;80.20;97882.75;5087145;28;20496;-68
2023/01/11 06:24:11;;;;;;;4.23;3.20;;;5.50;89.20;;;5.22;80.30;97882.56;5082097;28;20971;-69
2023/01/11 06:26:38;;;;;;;3.70;2.50;;;5.60;90.00;;;5.31;79.19;97876.09;5070823;28;20566;-69
2023/01/11 06:29:05;;;;;;;3.60;3.03;;;5.60;89.10;;;5.36;79.22;97879.06;5070275;28;20468;-69
2023/01/11 06:31:32;;;;;;;4.40;2.80;;;5.60;88.20;;;5.15;80.15;97878.97;5092021;28;20482;-70
2023/01/11 06:33:59;;;;;;;3.37;2.73;;;5.60;88.70;;;5.28;79.54;97875.63;5090702;28;21128;-68
2023/01/11 06:36:26;;;;;;;4.17;2.70;;;5.60;88.50;;;5.19;80.13;97886.47;5092653;28;20455;-68
2023/01/11 06:38:55;;;;;;;4.50;2.20;;;5.60;88.40;;;5.34;79.91;97891.00;5075379;28;20463;-69
2023/01/11 06:41:22;;;;;;;3.53;2.40;;;5.60;88.60;;;5.29;79.09;97843.31;5087766;28;21025;-69
2023/01/11 06:43:51;;;;;;;7.00;2.73;;;5.80;88.80;;;5.49;79.40;97885.59;5084448;28;20491;-68
2023/01/11 06:46:18;;;;;;;4.30;2.80;;;5.80;88.30;;;5.66;78.73;97889.75;5090502;28;20535;-69
2023/01/11 06:48:46;;;;;;;4.43;3.00;;;5.80;88.30;;;5.62;78.81;97883.09;5072392;28;20534;-71
2023/01/11 06:51:15;;;;;;;3.37;2.80;;;5.90;87.70;;;5.62;78.81;97880.44;5071019;28;20448;-69
2023/01/11 06:53:44;;;;;;;5.50;2.60;;;5.90;87.60;;;5.32;80.28;97885.81;5068191;28;20454;-68
2023/01/11 06:56:15;;;;;;;3.27;2.97;;;5.80;88.10;;;5.46;79.71;97880.63;5071423;28;20451;-70
2023/01/11 06:58:42;;;;;;;3.37;2.70;;;5.80;88.90;;;5.37;80.70;97872.66;5083458;28;20514;-69
2023/01/11 07:01:10;;;;;;;4.37;3.10;;;5.80;89.00;;;5.41;81.01;97875.00;5082112;28;20491;-67
2023/01/11 07:03:38;;;;;;;2.90;2.30;;;5.80;89.30;;;5.22;80.89;97864.66;5067252;28;20784;-70
2023/01/11 07:06:06;;;;;;;2.90;2.37;;;5.70;89.20;;;5.23;80.90;97863.63;5083083;28;20972;-68
2023/01/11 07:08:33;;;;;;;4.73;2.70;;;5.70;89.30;;;5.25;80.97;97866.13;5085588;28;20460;-69
2023/01/11 07:11:00;;;;;;;3.50;2.57;;;5.70;89.70;;;5.28;80.65;97864.91;5067377;28;20544;-69
2023/01/11 07:13:28;;;;;;;4.03;2.27;;;5.70;90.00;;;5.39;80.60;97865.31;5086221;28;20533;-69
2023/01/11 07:15:57;;;;;;;2.87;2.30;;;5.80;89.70;;;5.51;80.14;97864.81;5078086;28;20460;-67
2023/01/11 07:18:25;;;;;;;3.47;2.60;;;5.90;88.70;;;5.39;80.47;97868.00;5063607;28;20869;-69
2023/01/11 07:20:52;;;;;;;3.70;2.43;;;5.80;88.60;;;5.46;80.35;97872.59;5085914;28;20466;-68
2023/01/11 07:23:19;;;;;;;5.60;2.60;;;5.80;88.40;;;5.52;79.80;97866.47;5084991;28;20555;-70
2023/01/11 07:25:48;;;;;;;3.00;2.50;;;5.90;88.50;;;5.53;79.80;97857.41;5086124;28;20872;-68
2023/01/11 07:28:16;;;;;;;4.00;2.70;;;5.90;88.20;;;5.64;79.08;97864.97;5067664;28;20452;-68
2023/01/11 07:30:44;;;;;;;2.70;2.13;;;6.00;88.30;;;5.16;78.92;97792.25;5062316;28;20466;-69
2023/01/11 07:33:12;;;;;;;4.33;2.20;;;6.00;87.20;;;5.78;78.75;97859.78;5077834;28;20466;-69
2023/01/11 07:35:39;;;;;;;9.20;3.00;;;6.10;87.30;;;5.77;78.03;97858.13;5063425;28;20460;-69
2023/01/11 07:38:09;;;;;;;6.60;2.93;;;6.10;86.60;;;5.87;78.77;97853.31;5084018;28;20454;-69
2023/01/11 07:40:36;;;;;;;3.13;2.20;;;6.20;87.00;;;5.83;77.99;97846.63;5084903;28;20498;-70
2023/01/11 07:43:13;;;;;;;7.30;2.60;;;6.30;86.20;;;5.83;77.75;97852.00;5067916;28;21023;-69
2023/01/11 07:45:46;;;;;;;5.07;2.33;;;6.30;85.90;;;6.05;77.73;97854.75;5079050;28;20460;-69
2023/01/11 07:48:14;;;;;;;4.37;2.07;;;6.40;86.30;;;5.98;78.14;97818.94;5084286;28;20785;-73
2023/01/11 07:50:42;;;;;;;2.77;2.20;;;6.40;86.10;;;6.03;76.78;97857.59;5068025;28;20459;-69
2023/01/11 07:53:10;;;;;;;4.67;2.43;;;6.40;84.90;;;6.03;76.99;97859.47;5086652;28;20474;-69
2023/01/11 07:55:38;;;;;;;2.90;1.83;;;6.40;84.90;;;5.99;76.92;97855.47;5077671;28;20531;-68
2023/01/11 07:58:05;;;;;;;4.57;2.33;;;6.40;84.70;;;6.22;76.50;97863.41;5073846;28;20798;-68
2023/01/11 08:00:33;;;;;;;5.30;2.47;;;6.50;85.20;;;6.13;76.11;97857.28;5067427;28;20835;-68
2023/01/11 08:03:02;;;;;;;3.00;2.17;;;6.50;84.20;;;6.14;76.05;97847.41;5080405;28;20609;-67
2023/01/11 08:05:29;;;;;;;3.67;2.13;;;6.50;84.00;;;6.12;76.23;97849.47;5082196;28;20457;-69
2023/01/11 08:07:57;;;;;;;2.80;2.10;;;6.60;83.90;;;6.35;75.63;97849.25;5080371;28;20463;-68
2023/01/11 08:10:24;;;;;;;5.07;2.67;;;6.60;83.90;;;6.47;75.57;97844.19;5078019;28;20480;-68
2023/01/11 08:15:37;;;;;;;4.50;2.60;;;6.80;83.50;;;6.50;74.47;97844.66;5079268;28;20456;-68
2023/01/11 08:18:06;;;;;;;3.90;1.83;;;6.80;83.10;;;6.58;74.46;97846.38;5083841;28;20468;-68
2023/01/11 08:20:33;;;;;;;4.10;2.47;;;6.90;83.10;;;6.54;74.41;97839.75;5065909;28;20477;-69
2023/01/11 08:23:04;;;;;;;3.63;2.20;;;6.90;82.90;;;6.64;74.35;97836.72;5085773;28;20452;-70
2023/01/11 08:25:31;;;;;;;3.67;2.40;;;6.90;82.90;;;6.56;74.52;97839.53;5077245;28;20461;-70
2023/01/11 08:28:01;;;;;;;4.60;2.90;;;6.90;82.60;;;6.71;73.68;97834.91;5081629;28;20990;-69
2023/01/11 08:30:28;;;;;;;4.37;2.30;;;7.00;82.70;;;6.67;73.92;97839.00;5082140;28;20472;-70
2023/01/11 08:32:56;;;;;;;2.60;2.10;;;7.00;82.80;;;6.92;73.20;97822.47;5084132;28;20526;-69
2023/01/11 08:35:25;;;;;;;2.70;2.00;;;7.10;82.40;;;6.94;73.17;97810.47;5078889;28;20461;-69
2023/01/11 08:37:53;;;;;;;2.10;1.67;;;7.20;82.10;;;6.88;73.21;97821.16;5063876;28;20483;-68
2023/01/11 08:40:20;;;;;;;2.30;1.90;;;7.20;81.90;;;6.83;73.40;97829.84;5080215;28;20488;-68
2023/01/11 08:42:47;;;;;;;3.53;2.10;;;7.20;82.20;;;7.01;72.80;97826.63;5084946;28;20554;-69
2023/01/11 08:45:14;;;;;;;4.37;2.20;;;7.30;82.10;;;7.32;72.04;97827.22;5083829;28;20552;-68
2023/01/11 08:47:42;;;;;;;1.90;1.73;;;7.40;81.80;;;7.08;72.42;97840.94;5078177;28;20460;-69
2023/01/11 08:50:11;;;;;;;2.97;2.07;;;7.40;81.50;;;7.00;73.02;97846.47;5083509;28;20484;-68
2023/01/11 08:52:42;;;;;;;2.90;1.90;;;7.40;81.60;;;7.23;71.71;97845.38;5080326;28;20438;-69
2023/01/11 08:55:09;;;;;;;2.67;1.70;;;7.40;81.60;;;7.29;72.26;97844.56;5064986;28;20541;-69
2023/01/11 08:57:37;;;;;;;2.47;1.93;;;7.50;81.50;;;7.18;72.68;97842.44;5064226;28;20446;-69
2023/01/11 09:00:06;;;;;;;3.37;1.93;;;7.60;81.40;;;7.13;72.51;97835.00;5082938;28;20497;-69
2023/01/11 09:02:33;;;;;;;2.67;2.17;;;7.50;81.40;;;7.20;72.41;97824.25;5078641;28;20483;-67
2023/01/11 09:05:00;;;;;;;18.57;8.57;;;7.50;81.50;;;7.18;72.41;97826.31;5063369;28;21036;-69
2023/01/11 09:07:28;;;;;;;4.87;3.13;;;7.50;81.40;;;7.19;72.53;97822.59;5080719;28;20513;-67
2023/01/11 09:09:56;;;;;;;3.20;2.13;;;7.50;81.50;;;7.26;72.13;97833.38;5075330;28;20524;-68
2023/01/11 09:12:23;;;;;;;4.23;2.53;;;7.50;81.40;;;7.29;72.33;97838.38;5060630;28;21138;-69
2023/01/11 09:14:50;;;;;;;3.40;2.00;;;7.60;81.40;;;7.23;72.50;97842.69;5082747;28;20457;-68
2023/01/11 09:17:17;;;;;;;3.10;1.80;;;7.60;81.40;;;7.21;72.44;97844.75;5079070;28;20457;-68
2023/01/11 09:19:45;;;;;;;5.37;2.47;;;7.60;81.30;;;7.09;73.05;97839.91;5061575;28;20476;-68
2023/01/11 09:22:12;;;;;;;3.37;1.63;;;7.50;81.50;;;7.28;72.66;97837.53;5065635;28;20444;-68
2023/01/11 09:24:39;;;;;;;5.60;2.17;;;7.60;81.50;;;7.37;72.35;97822.91;5077724;28;20453;-69
2023/01/11 09:27:10;;;;;;;3.07;1.80;;;7.60;81.60;;;7.51;72.34;97831.03;5081327;28;20460;-68
2023/01/11 09:29:37;;;;;;;4.00;2.30;;;7.70;81.50;;;7.62;71.27;97833.13;5083865;28;20452;-68
2023/01/11 09:32:05;;;;;;;3.13;2.07;;;7.80;81.30;;;7.61;71.16;97836.84;5079803;28;20481;-68
2023/01/11 09:34:33;;;;;;;3.70;2.03;;;7.90;81.20;;;7.67;71.19;97831.72;5061530;28;20892;-70
2023/01/11 09:37:02;;;;;;;3.00;1.67;;;8.00;81.00;;;7.83;70.75;97833.22;5077264;28;20944;-67
2023/01/11 09:39:30;;;;;;;2.50;1.90;;;8.00;81.10;;;7.64;71.29;97827.56;5079986;28;20476;-68
2023/01/11 09:42:31;;;;;;;2.13;1.70;;;7.90;80.90;;;7.77;70.96;97822.25;5084585;28;20445;-68
2023/01/11 09:45:06;;;;;;;4.00;1.80;;;8.00;80.80;;;7.63;71.35;97824.03;5080562;28;20547;-69
2023/01/11 09:47:39;;;;;;;3.50;1.87;;;8.00;80.80;;;7.56;71.78;97816.97;5082815;28;20463;-69
2023/01/11 09:50:15;;;;;;;3.27;1.90;;;8.00;80.90;;;7.79;70.86;97812.09;5062921;28;20444;-69
2023/01/11 09:52:46;;;;;;;1.93;1.73;;;8.10;80.90;;;7.74;70.97;97802.97;5085833;28;20458;-68
2023/01/11 09:55:21;;;;;;;4.10;2.00;;;8.10;80.80;;;7.62;71.72;97800.88;5084983;28;20542;-69
2023/01/11 09:58:27;;;;;;;3.77;2.17;;;8.00;80.80;;;7.76;71.24;97795.53;5070480;28;20547;-68
2023/01/11 10:01:02;;;;;;;1.83;1.70;;;8.10;80.80;;;7.75;72.19;97793.88;5081736;28;20478;-69
2023/01/11 10:04:04;;;;;;;2.80;1.53;;;8.10;81.30;;;7.68;72.52;97793.03;5066983;28;21031;-67
2023/01/11 10:06:46;;;;;;;2.17;1.50;;;8.10;81.50;;;7.70;72.20;97764.91;5067706;28;20814;-69
2023/01/11 10:09:29;;;;;;;6.03;1.60;;;8.10;81.70;;;7.88;72.67;97785.00;5065177;28;20477;-68
2023/01/11 10:12:12;;;;;;;2.47;1.33;;;8.20;81.80;;;8.02;71.94;97793.94;5087926;28;20509;-67
2023/01/11 10:14:57;;;;;;;3.13;2.40;;;8.30;81.80;;;8.13;71.41;97785.28;5069331;28;20541;-68
2023/01/11 10:17:36;;;;;;;1.77;1.57;;;8.30;81.70;;;8.29;70.62;97783.22;5084676;28;21330;-68
2023/01/11 10:20:16;;;;;;;3.23;2.27;;;8.50;81.20;;;8.32;70.79;97780.09;5085001;28;20964;-68
2023/01/11 10:22:47;;;;;;;5.13;1.90;;;8.60;81.10;;;8.62;69.43;97777.03;5080476;28;20456;-69
2023/01/11 10:25:22;;;;;;;2.93;1.50;;;8.70;80.70;;;8.44;70.00;97788.38;5081747;28;20455;-68
2023/01/11 10:27:56;;;;;;;2.20;1.67;;;8.80;80.40;;;8.62;69.54;97775.13;5084570;28;20442;-71
2023/01/11 10:30:52;;;;;;;2.70;1.43;;;8.90;80.40;;;8.71;69.66;97761.47;5063653;28;20454;-69
2023/01/11 10:33:49;;;;;;;1.13;1.00;;;8.90;80.20;;;8.68;69.34;97759.19;5067961;28;20520;-69
2023/01/11 10:36:34;;;;;;;2.03;1.60;;;8.90;79.90;;;8.61;69.38;97732.28;5087993;28;20549;-70
2023/01/11 10:39:26;;;;;;;19.93;10.83;;;9.00;79.70;;;8.79;68.87;97737.84;5061989;28;21415;-68
2023/01/11 10:42:06;;;;;;;12.20;4.53;;;9.10;79.60;;;8.93;67.65;97719.75;5064000;28;20448;-69
2023/01/11 10:44:41;;;;;;;3.17;1.47;;;9.20;79.40;;;8.96;68.47;97731.97;5062963;28;20558;-67
2023/01/11 10:47:18;;;;;;;1.60;1.30;;;9.30;79.20;;;9.11;67.69;97728.19;5082935;28;20537;-69
2023/01/11 10:49:51;;;;;;;3.07;1.80;;;9.30;79.20;;;9.19;67.07;97733.38;5077474;28;20441;-71
2023/01/11 10:52:28;;;;;;;3.37;1.67;;;9.40;79.40;;;9.04;68.16;97731.75;5089175;28;20457;-68
2023/01/11 10:54:57;;;;;;;2.80;1.57;;;9.30;79.20;;;8.96;68.31;97734.66;5061556;28;20458;-70
2023/01/11 10:57:40;;;;;;;2.03;1.50;;;9.30;79.30;;;8.82;68.85;97733.06;5063239;28;20459;-68
2023/01/11 11:00:27;;;;;;;3.43;2.07;;;9.20;79.20;;;9.06;68.52;97735.06;5089096;28;21028;-68
2023/01/11 11:03:40;;;;;;;3.03;2.33;;;9.30;79.60;;;9.09;68.46;97735.69;5078766;28;20446;-68
2023/01/11 11:06:19;;;;;;;3.27;1.93;;;9.30;79.40;;;8.95;69.13;97732.19;5067817;28;20459;-68
2023/01/11 11:08:56;;;;;;;11.23;3.07;;;9.20;79.90;;;9.19;68.93;97728.78;5063475;28;20456;-69
2023/01/11 11:11:30;;;;;;;6.00;3.00;;;9.30;80.10;;;9.16;68.95;97733.78;5085394;28;20994;-68
2023/01/11 11:14:03;;;;;;;3.30;2.10;;;9.40;79.90;;;9.35;68.56;97723.94;5088268;28;20455;-67